createdAt,value
2023-01-13T00:00:36.211Z,205.64
2023-01-13T00:01:36.064Z,206.18
2023-01-13T00:02:36.074Z,206.28
2023-01-13T00:03:35.950Z,205.12
2023-01-13T00:04:36.048Z,205.57
2023-01-13T00:05:35.919Z,204.86
2023-01-13T00:06:35.941Z,206.34
2023-01-13T00:07:35.965Z,205.06
2023-01-13T00:08:35.904Z,204.37
2023-01-13T00:09:35.977Z,205.16
2023-01-13T00:10:35.867Z,204.99
2023-01-13T00:11:35.844Z,204.59
2023-01-13T00:12:35.874Z,204.63
2023-01-13T00:13:35.791Z,205.01
2023-01-13T00:14:35.812Z,205.70
2023-01-13T00:15:35.824Z,204.04
2023-01-13T00:16:36.762Z,204.34
2023-01-13T00:17:35.733Z,205.35
2023-01-13T00:18:35.755Z,201.63
2023-01-13T00:19:35.713Z,203.57
2023-01-13T00:20:35.807Z,202.59
2023-01-13T00:21:35.661Z,203.88
2023-01-13T00:22:35.691Z,203.52
2023-01-13T00:23:35.789Z,202.89
2023-01-13T00:24:35.668Z,203.87
2023-01-13T00:25:35.675Z,193.36
2023-01-13T00:26:35.666Z,181.50
2023-01-13T00:27:35.604Z,177.36
2023-01-13T00:28:35.621Z,184.86
2023-01-13T00:29:35.568Z,190.43
2023-01-13T00:30:35.823Z,194.15
2023-01-13T00:31:35.580Z,192.94
2023-01-13T00:32:35.556Z,192.17
2023-01-13T00:33:35.567Z,192.62
2023-01-13T00:34:35.511Z,190.88
2023-01-13T00:35:35.463Z,190.75
2023-01-13T00:36:35.488Z,189.25
2023-01-13T00:37:35.488Z,189.54
2023-01-13T00:38:35.451Z,190.04
2023-01-13T00:39:35.401Z,188.84
2023-01-13T00:40:35.411Z,187.91
2023-01-13T00:41:35.397Z,188.33
2023-01-13T00:42:35.388Z,188.15
2023-01-13T00:43:35.334Z,189.95
2023-01-13T00:44:35.378Z,189.47
2023-01-13T00:45:35.346Z,189.15
2023-01-13T00:46:35.382Z,190.00
2023-01-13T00:47:35.262Z,189.85
2023-01-13T00:48:35.306Z,189.22
2023-01-13T00:49:35.241Z,190.64
2023-01-13T00:50:35.240Z,190.84
2023-01-13T00:51:35.194Z,190.44
2023-01-13T00:52:35.287Z,191.31
2023-01-13T00:53:35.212Z,191.50
2023-01-13T00:54:35.187Z,190.60
2023-01-13T00:55:35.142Z,192.57
2023-01-13T00:56:40.286Z,189.84
2023-01-13T00:57:36.196Z,190.06
2023-01-13T00:58:35.106Z,190.34
2023-01-13T00:59:35.233Z,190.93
2023-01-13T01:00:35.148Z,191.34
2023-01-13T01:01:35.210Z,192.82
2023-01-13T01:02:35.132Z,194.03
2023-01-13T01:03:35.066Z,192.14
2023-01-13T01:04:35.024Z,192.38
2023-01-13T01:05:35.066Z,192.70
2023-01-13T01:06:35.007Z,191.73
2023-01-13T01:07:35.024Z,191.99
2023-01-13T01:08:34.967Z,191.13
2023-01-13T01:09:34.992Z,192.27
2023-01-13T01:10:34.951Z,193.01
2023-01-13T01:11:34.976Z,191.43
2023-01-13T01:12:35.041Z,193.24
2023-01-13T01:13:34.919Z,194.68
2023-01-13T01:14:34.881Z,193.47
2023-01-13T01:15:34.926Z,193.24
2023-01-13T01:16:34.939Z,193.37
2023-01-13T01:17:34.854Z,192.11
2023-01-13T01:18:34.811Z,193.45
2023-01-13T01:19:34.837Z,193.71
2023-01-13T01:20:35.011Z,192.04
2023-01-13T01:21:34.817Z,193.51
2023-01-13T01:22:34.759Z,195.37
2023-01-13T01:23:34.786Z,193.70
2023-01-13T01:24:34.779Z,193.24
2023-01-13T01:25:34.778Z,192.58
2023-01-13T01:26:34.687Z,195.48
2023-01-13T01:27:34.697Z,192.58
2023-01-13T01:28:34.661Z,193.36
2023-01-13T01:29:34.664Z,193.44
2023-01-13T01:30:34.630Z,192.89
2023-01-13T01:31:34.677Z,194.19
2023-01-13T01:32:34.630Z,194.24
2023-01-13T01:33:34.621Z,192.58
2023-01-13T01:34:34.578Z,193.81
2023-01-13T01:35:34.605Z,193.61
2023-01-13T01:36:34.558Z,192.88
2023-01-13T01:37:34.566Z,195.16
2023-01-13T01:38:34.675Z,194.63
2023-01-13T01:39:34.544Z,192.07
2023-01-13T01:40:34.515Z,195.15
2023-01-13T01:41:34.509Z,192.86
2023-01-13T01:42:34.554Z,192.94
2023-01-13T01:43:34.504Z,195.26
2023-01-13T01:44:34.449Z,193.87
2023-01-13T01:45:34.458Z,193.96
2023-01-13T01:46:34.464Z,194.32
2023-01-13T01:47:34.420Z,194.95
2023-01-13T01:48:35.040Z,192.60
2023-01-13T01:49:34.731Z,194.22
2023-01-13T01:50:34.504Z,194.63
2023-01-13T01:51:34.345Z,193.96
2023-01-13T01:52:34.331Z,192.34
2023-01-13T01:53:34.345Z,193.31
2023-01-13T01:54:34.327Z,193.50
2023-01-13T01:55:34.325Z,192.63
2023-01-13T01:56:34.285Z,194.11
2023-01-13T01:57:34.284Z,193.96
2023-01-13T01:58:34.267Z,193.36
2023-01-13T01:59:34.263Z,194.79
2023-01-13T02:00:34.262Z,193.72
2023-01-13T02:01:34.344Z,194.24
2023-01-13T02:02:34.323Z,194.32
2023-01-13T02:03:34.244Z,193.35
2023-01-13T02:04:34.188Z,192.74
2023-01-13T02:05:34.233Z,195.32
2023-01-13T02:06:34.223Z,194.85
2023-01-13T02:07:34.206Z,194.41
2023-01-13T02:08:34.173Z,194.12
2023-01-13T02:09:34.192Z,195.62
2023-01-13T02:10:34.148Z,194.69
2023-01-13T02:11:34.170Z,194.56
2023-01-13T02:12:34.133Z,194.02
2023-01-13T02:13:34.172Z,194.58
2023-01-13T02:14:34.182Z,195.17
2023-01-13T02:15:34.139Z,194.75
2023-01-13T02:16:34.140Z,194.72
2023-01-13T02:17:34.101Z,196.32
2023-01-13T02:18:34.057Z,192.74
2023-01-13T02:19:34.104Z,193.77
2023-01-13T02:20:34.063Z,194.62
2023-01-13T02:21:34.054Z,193.75
2023-01-13T02:22:34.009Z,195.46
2023-01-13T02:23:34.033Z,193.79
2023-01-13T02:24:34.003Z,191.80
2023-01-13T02:25:34.015Z,193.54
2023-01-13T02:26:33.979Z,194.69
2023-01-13T02:27:34.001Z,193.20
2023-01-13T02:28:33.959Z,193.18
2023-01-13T02:29:33.947Z,193.97
2023-01-13T02:30:33.910Z,193.21
2023-01-13T02:31:34.017Z,195.51
2023-01-13T02:32:33.921Z,194.67
2023-01-13T02:33:33.906Z,194.60
2023-01-13T02:34:33.905Z,195.04
2023-01-13T02:35:33.892Z,196.04
2023-01-13T02:36:33.854Z,195.29
2023-01-13T02:37:33.859Z,194.10
2023-01-13T02:38:33.816Z,195.66
2023-01-13T02:39:33.836Z,194.22
2023-01-13T02:40:33.821Z,193.95
2023-01-13T02:41:33.816Z,195.20
2023-01-13T02:42:33.765Z,195.08
2023-01-13T02:43:33.792Z,193.63
2023-01-13T02:44:33.971Z,195.29
2023-01-13T02:45:33.866Z,192.73
2023-01-13T02:46:33.714Z,191.50
2023-01-13T02:47:33.722Z,193.97
2023-01-13T02:48:33.692Z,192.63
2023-01-13T02:49:33.839Z,193.27
2023-01-13T02:50:33.717Z,195.77
2023-01-13T02:51:33.695Z,195.81
2023-01-13T02:52:33.632Z,194.36
2023-01-13T02:53:33.729Z,193.64
2023-01-13T02:54:33.612Z,193.86
2023-01-13T02:55:33.642Z,193.81
2023-01-13T02:56:33.566Z,193.78
2023-01-13T02:57:33.662Z,194.35
2023-01-13T02:58:33.557Z,194.00
2023-01-13T02:59:33.583Z,192.96
2023-01-13T03:00:33.549Z,193.91
2023-01-13T03:01:33.674Z,194.12
2023-01-13T03:02:33.567Z,194.49
2023-01-13T03:03:33.553Z,193.68
2023-01-13T03:04:33.542Z,194.07
2023-01-13T03:05:33.508Z,195.31
2023-01-13T03:06:33.460Z,195.57
2023-01-13T03:07:33.486Z,195.56
2023-01-13T03:08:33.457Z,194.97
2023-01-13T03:09:33.471Z,195.50
2023-01-13T03:10:33.492Z,194.70
2023-01-13T03:11:33.484Z,193.19
2023-01-13T03:12:33.534Z,191.76
2023-01-13T03:13:33.735Z,193.09
2023-01-13T03:14:33.401Z,195.20
2023-01-13T03:15:33.433Z,192.97
2023-01-13T03:16:33.477Z,193.66
2023-01-13T03:17:33.363Z,194.08
2023-01-13T03:18:33.363Z,194.30
2023-01-13T03:19:33.385Z,193.22
2023-01-13T03:20:33.316Z,193.91
2023-01-13T03:21:33.317Z,194.73
2023-01-13T03:22:33.303Z,192.60
2023-01-13T03:23:33.417Z,194.35
2023-01-13T03:24:33.247Z,194.31
2023-01-13T03:25:33.287Z,193.67
2023-01-13T03:26:33.234Z,192.46
2023-01-13T03:27:33.250Z,194.91
2023-01-13T03:28:33.370Z,196.58
2023-01-13T03:29:33.414Z,196.85
2023-01-13T03:30:33.195Z,192.20
2023-01-13T03:31:33.200Z,193.53
2023-01-13T03:32:33.279Z,192.63
2023-01-13T03:33:33.181Z,192.34
2023-01-13T03:34:33.117Z,192.63
2023-01-13T03:35:33.173Z,193.15
2023-01-13T03:36:33.123Z,192.83
2023-01-13T03:37:33.130Z,195.01
2023-01-13T03:38:33.065Z,193.07
2023-01-13T03:39:33.109Z,194.54
2023-01-13T03:40:33.071Z,193.23
2023-01-13T03:41:33.065Z,194.58
2023-01-13T03:42:33.034Z,194.33
2023-01-13T03:43:33.057Z,195.24
2023-01-13T03:44:33.079Z,192.28
2023-01-13T03:45:33.042Z,193.14
2023-01-13T03:46:33.010Z,192.90
2023-01-13T03:47:33.033Z,195.67
2023-01-13T03:48:32.973Z,195.45
2023-01-13T03:49:33.105Z,196.32
2023-01-13T03:50:32.940Z,193.11
2023-01-13T03:51:32.980Z,193.87
2023-01-13T03:52:32.920Z,193.11
2023-01-13T03:53:33.002Z,194.87
2023-01-13T03:54:32.908Z,193.27
2023-01-13T03:55:32.938Z,193.33
2023-01-13T03:56:32.866Z,193.36
2023-01-13T03:57:32.902Z,193.74
2023-01-13T03:58:32.852Z,193.81
2023-01-13T03:59:34.083Z,194.68
2023-01-13T04:00:32.883Z,195.99
2023-01-13T04:01:32.938Z,193.53
2023-01-13T04:02:32.814Z,194.38
2023-01-13T04:03:32.864Z,192.22
2023-01-13T04:04:32.771Z,191.80
2023-01-13T04:05:32.869Z,194.53
2023-01-13T04:06:32.768Z,194.92
2023-01-13T04:07:32.767Z,193.82
2023-01-13T04:08:32.747Z,193.01
2023-01-13T04:09:32.742Z,196.62
2023-01-13T04:10:32.690Z,193.50
2023-01-13T04:11:32.691Z,194.88
2023-01-13T04:12:32.677Z,195.00
2023-01-13T04:13:32.688Z,192.90
2023-01-13T04:14:32.662Z,192.31
2023-01-13T04:15:32.757Z,194.01
2023-01-13T04:16:32.632Z,193.01
2023-01-13T04:17:32.636Z,193.48
2023-01-13T04:18:32.614Z,193.94
2023-01-13T04:19:32.592Z,190.48
2023-01-13T04:20:32.637Z,192.69
2023-01-13T04:21:32.557Z,193.20
2023-01-13T04:22:32.631Z,192.71
2023-01-13T04:23:32.591Z,190.54
2023-01-13T04:24:32.534Z,192.88
2023-01-13T04:25:32.527Z,191.25
2023-01-13T04:26:32.532Z,194.13
2023-01-13T04:27:32.520Z,193.39
2023-01-13T04:28:32.469Z,193.10
2023-01-13T04:29:32.492Z,195.35
2023-01-13T04:30:32.462Z,192.77
2023-01-13T04:31:32.465Z,191.76
2023-01-13T04:32:32.445Z,190.40
2023-01-13T04:33:32.523Z,190.54
2023-01-13T04:34:32.383Z,192.80
2023-01-13T04:35:32.579Z,192.58
2023-01-13T04:36:32.588Z,192.86
2023-01-13T04:37:32.360Z,193.21
2023-01-13T04:38:32.328Z,189.59
2023-01-13T04:39:32.338Z,190.88
2023-01-13T04:40:32.310Z,191.01
2023-01-13T04:41:32.522Z,190.64
2023-01-13T04:42:32.274Z,191.40
2023-01-13T04:43:32.328Z,192.53
2023-01-13T04:44:32.267Z,193.78
2023-01-13T04:45:32.323Z,190.58
2023-01-13T04:46:32.462Z,190.91
2023-01-13T04:47:32.354Z,189.59
2023-01-13T04:48:32.216Z,190.53
2023-01-13T04:49:32.206Z,190.01
2023-01-13T04:50:32.198Z,191.74
2023-01-13T04:51:32.213Z,193.54
2023-01-13T04:52:32.177Z,190.57
2023-01-13T04:53:32.211Z,190.26
2023-01-13T04:54:32.195Z,191.40
2023-01-13T04:55:32.173Z,190.49
2023-01-13T04:56:32.106Z,191.87
2023-01-13T04:57:32.140Z,192.24
2023-01-13T04:58:32.110Z,191.64
2023-01-13T04:59:34.465Z,189.95
2023-01-13T05:00:32.232Z,189.42
2023-01-13T05:01:32.272Z,189.98
2023-01-13T05:02:32.184Z,191.33
2023-01-13T05:03:32.104Z,193.22
2023-01-13T05:04:32.209Z,191.16
2023-01-13T05:05:32.185Z,191.18
2023-01-13T05:06:32.140Z,191.60
2023-01-13T05:07:32.088Z,189.86
2023-01-13T05:08:32.148Z,190.19
2023-01-13T05:09:32.080Z,191.31
2023-01-13T05:10:32.098Z,192.38
2023-01-13T05:11:32.019Z,191.96
2023-01-13T05:12:32.047Z,191.10
2023-01-13T05:13:32.027Z,190.36
2023-01-13T05:14:32.046Z,192.14
2023-01-13T05:15:31.976Z,192.05
2023-01-13T05:16:32.040Z,191.32
2023-01-13T05:17:31.991Z,190.06
2023-01-13T05:18:32.038Z,191.52
2023-01-13T05:19:31.942Z,192.59
2023-01-13T05:20:32.007Z,190.87
2023-01-13T05:21:32.016Z,190.75
2023-01-13T05:22:31.978Z,189.79
2023-01-13T05:23:31.999Z,190.83
2023-01-13T05:24:31.980Z,190.12
2023-01-13T05:25:31.907Z,188.79
2023-01-13T05:26:31.962Z,189.59
2023-01-13T05:27:31.936Z,191.16
2023-01-13T05:28:31.969Z,191.66
2023-01-13T05:29:31.902Z,190.80
2023-01-13T05:30:31.946Z,188.39
2023-01-13T05:31:31.920Z,188.85
2023-01-13T05:32:31.946Z,191.55
2023-01-13T05:33:33.139Z,190.99
2023-01-13T05:34:31.951Z,190.01
2023-01-13T05:35:31.852Z,190.78
2023-01-13T05:36:31.875Z,191.51
2023-01-13T05:37:31.900Z,188.95
2023-01-13T05:38:31.837Z,189.10
2023-01-13T05:39:31.830Z,190.28
2023-01-13T05:40:31.848Z,188.91
2023-01-13T05:41:31.804Z,188.54
2023-01-13T05:42:31.994Z,189.34
2023-01-13T05:43:31.813Z,189.42
2023-01-13T05:44:32.036Z,187.86
2023-01-13T05:45:31.737Z,189.34
2023-01-13T05:46:31.807Z,191.22
2023-01-13T05:47:31.723Z,189.50
2023-01-13T05:48:31.747Z,189.97
2023-01-13T05:49:31.697Z,189.30
2023-01-13T05:50:31.731Z,189.89
2023-01-13T05:51:31.679Z,188.49
2023-01-13T05:52:31.705Z,192.88
2023-01-13T05:53:31.681Z,192.27
2023-01-13T05:54:31.674Z,194.11
2023-01-13T05:55:31.686Z,194.51
2023-01-13T05:56:31.667Z,193.45
2023-01-13T05:57:31.607Z,192.41
2023-01-13T05:58:31.634Z,192.35
2023-01-13T05:59:31.570Z,190.74
2023-01-13T06:00:31.623Z,190.87
2023-01-13T06:01:31.674Z,190.86
2023-01-13T06:02:31.596Z,186.64
2023-01-13T06:03:31.543Z,192.09
2023-01-13T06:04:31.619Z,194.54
2023-01-13T06:05:31.518Z,198.64
2023-01-13T06:06:31.849Z,213.43
2023-01-13T06:07:31.481Z,215.46
2023-01-13T06:08:31.535Z,216.81
2023-01-13T06:09:31.667Z,223.19
2023-01-13T06:10:31.499Z,219.93
2023-01-13T06:11:31.435Z,220.18
2023-01-13T06:12:31.563Z,218.40
2023-01-13T06:13:31.385Z,219.92
2023-01-13T06:14:31.427Z,220.06
2023-01-13T06:15:31.363Z,222.56
2023-01-13T06:16:31.482Z,235.27
2023-01-13T06:17:31.340Z,243.96
2023-01-13T06:18:31.482Z,263.84
2023-01-13T06:19:31.315Z,230.08
2023-01-13T06:20:31.302Z,192.10
2023-01-13T06:21:33.114Z,200.75
2023-01-13T06:22:31.216Z,203.59
2023-01-13T06:23:31.153Z,207.79
2023-01-13T06:24:31.145Z,208.59
2023-01-13T06:25:31.115Z,206.40
2023-01-13T06:26:31.125Z,208.95
2023-01-13T06:27:31.038Z,209.09
2023-01-13T06:28:31.065Z,210.10
2023-01-13T06:29:31.019Z,210.39
2023-01-13T06:30:31.021Z,209.89
2023-01-13T06:31:31.067Z,215.83
2023-01-13T06:32:30.983Z,212.09
2023-01-13T06:33:30.907Z,211.71
2023-01-13T06:34:30.916Z,209.50
2023-01-13T06:35:30.867Z,207.77
2023-01-13T06:36:30.844Z,206.34
2023-01-13T06:37:30.768Z,206.13
2023-01-13T06:38:30.808Z,205.92
2023-01-13T06:39:30.728Z,205.50
2023-01-13T06:40:30.805Z,202.88
2023-01-13T06:41:30.669Z,201.60
2023-01-13T06:42:30.668Z,192.61
2023-01-13T06:43:30.657Z,196.74
2023-01-13T06:44:30.787Z,197.62
2023-01-13T06:45:30.784Z,197.98
2023-01-13T06:46:30.620Z,196.14
2023-01-13T06:47:30.553Z,196.86
2023-01-13T06:48:30.566Z,197.50
2023-01-13T06:49:30.508Z,194.00
2023-01-13T06:50:30.507Z,196.56
2023-01-13T06:51:30.535Z,194.41
2023-01-13T06:52:30.507Z,195.42
2023-01-13T06:53:30.400Z,194.33
2023-01-13T06:54:30.567Z,192.94
2023-01-13T06:55:30.454Z,190.53
2023-01-13T06:56:30.404Z,192.84
2023-01-13T06:57:30.453Z,190.22
2023-01-13T06:58:30.821Z,191.81
2023-01-13T06:59:30.310Z,188.99
2023-01-13T07:00:30.433Z,187.97
2023-01-13T07:01:30.400Z,187.06
2023-01-13T07:02:30.390Z,187.26
2023-01-13T07:03:30.264Z,184.45
2023-01-13T07:04:30.267Z,183.71
2023-01-13T07:05:30.218Z,184.99
2023-01-13T07:06:30.269Z,183.02
2023-01-13T07:07:30.171Z,187.24
2023-01-13T07:08:30.193Z,185.51
2023-01-13T07:09:30.157Z,185.52
2023-01-13T07:10:30.234Z,186.47
2023-01-13T07:11:30.272Z,185.38
2023-01-13T07:12:30.122Z,184.02
2023-01-13T07:13:30.104Z,184.43
2023-01-13T07:14:30.102Z,185.76
2023-01-13T07:15:30.073Z,185.47
2023-01-13T07:16:30.124Z,182.16
2023-01-13T07:17:30.143Z,185.86
2023-01-13T07:18:30.064Z,185.15
2023-01-13T07:19:29.988Z,184.07
2023-01-13T07:20:30.197Z,186.41
2023-01-13T07:21:29.992Z,185.04
2023-01-13T07:22:30.019Z,186.74
2023-01-13T07:23:29.927Z,184.05
2023-01-13T07:24:29.955Z,180.73
2023-01-13T07:25:29.914Z,184.85
2023-01-13T07:26:29.931Z,184.83
2023-01-13T07:27:29.933Z,184.47
2023-01-13T07:28:29.956Z,185.02
2023-01-13T07:29:29.859Z,185.67
2023-01-13T07:30:30.749Z,185.21
2023-01-13T07:31:29.865Z,186.19
2023-01-13T07:32:29.868Z,185.80
2023-01-13T07:33:29.806Z,186.02
2023-01-13T07:34:29.814Z,186.07
2023-01-13T07:35:29.807Z,184.30
2023-01-13T07:36:29.838Z,183.51
2023-01-13T07:37:29.751Z,180.88
2023-01-13T07:38:29.759Z,183.90
2023-01-13T07:39:29.754Z,181.16
2023-01-13T07:40:29.772Z,180.22
2023-01-13T07:41:29.702Z,181.92
2023-01-13T07:42:29.746Z,180.61
2023-01-13T07:43:29.687Z,181.33
2023-01-13T07:44:29.735Z,179.93
2023-01-13T07:45:29.679Z,182.77
2023-01-13T07:46:29.687Z,181.34
2023-01-13T07:47:29.658Z,182.77
2023-01-13T07:48:29.667Z,180.47
2023-01-13T07:49:29.596Z,182.01
2023-01-13T07:50:29.622Z,182.22
2023-01-13T07:51:29.571Z,180.91
2023-01-13T07:52:29.597Z,182.35
2023-01-13T07:53:29.573Z,181.49
2023-01-13T07:54:40.062Z,179.38
2023-01-13T07:55:30.881Z,179.59
2023-01-13T07:56:29.487Z,179.58
2023-01-13T07:57:29.529Z,180.02
2023-01-13T07:58:29.446Z,181.69
2023-01-13T07:59:29.446Z,181.14
2023-01-13T08:00:29.463Z,180.15
2023-01-13T08:01:29.521Z,179.50
2023-01-13T08:02:29.528Z,181.84
2023-01-13T08:03:29.388Z,180.09
2023-01-13T08:04:29.391Z,180.18
2023-01-13T08:05:29.351Z,177.44
2023-01-13T08:06:29.344Z,178.46
2023-01-13T08:07:29.319Z,176.39
2023-01-13T08:08:29.308Z,178.47
2023-01-13T08:09:29.324Z,178.70
2023-01-13T08:10:29.268Z,179.17
2023-01-13T08:11:29.307Z,178.75
2023-01-13T08:12:29.240Z,179.03
2023-01-13T08:13:29.260Z,179.24
2023-01-13T08:14:29.208Z,178.45
2023-01-13T08:15:29.217Z,176.85
2023-01-13T08:16:29.204Z,179.61
2023-01-13T08:17:29.180Z,179.93
2023-01-13T08:18:29.157Z,180.64
2023-01-13T08:19:29.153Z,175.85
2023-01-13T08:20:29.120Z,176.98
2023-01-13T08:21:29.132Z,179.38
2023-01-13T08:22:29.087Z,178.24
2023-01-13T08:23:30.958Z,180.62
2023-01-13T08:24:29.071Z,177.89
2023-01-13T08:25:29.070Z,175.47
2023-01-13T08:26:29.167Z,178.22
2023-01-13T08:27:29.014Z,177.57
2023-01-13T08:28:28.989Z,177.24
2023-01-13T08:29:29.032Z,177.16
2023-01-13T08:30:29.241Z,176.88
2023-01-13T08:31:28.967Z,177.52
2023-01-13T08:32:28.936Z,176.01
2023-01-13T08:33:28.953Z,176.03
2023-01-13T08:34:29.788Z,175.66
2023-01-13T08:35:28.930Z,178.37
2023-01-13T08:36:28.992Z,175.25
2023-01-13T08:37:28.999Z,173.70
2023-01-13T08:38:28.898Z,175.91
2023-01-13T08:39:28.854Z,175.09
2023-01-13T08:40:28.819Z,172.86
2023-01-13T08:41:28.840Z,175.06
2023-01-13T08:42:28.755Z,175.44
2023-01-13T08:43:28.797Z,173.79
2023-01-13T08:44:28.764Z,174.73
2023-01-13T08:45:28.773Z,173.81
2023-01-13T08:46:28.776Z,172.72
2023-01-13T08:47:28.708Z,173.77
2023-01-13T08:48:31.352Z,174.33
2023-01-13T08:49:28.701Z,177.07
2023-01-13T08:50:28.654Z,174.23
2023-01-13T08:51:28.650Z,174.23
2023-01-13T08:52:28.588Z,173.21
2023-01-13T08:53:28.686Z,175.01
2023-01-13T08:54:28.602Z,173.17
2023-01-13T08:55:28.592Z,175.67
2023-01-13T08:56:28.538Z,176.33
2023-01-13T08:57:28.655Z,174.35
2023-01-13T08:58:28.523Z,173.62
2023-01-13T08:59:28.628Z,175.49
2023-01-13T09:00:28.488Z,174.23
2023-01-13T09:01:28.633Z,174.42
2023-01-13T09:02:28.613Z,174.60
2023-01-13T09:03:28.472Z,172.39
2023-01-13T09:04:28.503Z,169.72
2023-01-13T09:05:28.478Z,173.19
2023-01-13T09:06:28.370Z,171.83
2023-01-13T09:07:28.675Z,170.23
2023-01-13T09:08:28.613Z,169.53
2023-01-13T09:09:28.395Z,170.19
2023-01-13T09:10:28.365Z,169.92
2023-01-13T09:11:28.330Z,171.38
2023-01-13T09:12:28.322Z,169.58
2023-01-13T09:13:28.308Z,169.48
2023-01-13T09:14:28.250Z,164.98
2023-01-13T09:15:28.324Z,166.85
2023-01-13T09:16:28.201Z,164.64
2023-01-13T09:17:28.222Z,166.74
2023-01-13T09:18:28.170Z,183.10
2023-01-13T09:19:28.201Z,177.05
2023-01-13T09:20:28.117Z,187.61
2023-01-13T09:21:28.133Z,186.54
2023-01-13T09:22:28.113Z,181.37
2023-01-13T09:23:28.111Z,183.17
2023-01-13T09:24:28.176Z,181.71
2023-01-13T09:25:28.084Z,180.13
2023-01-13T09:26:27.978Z,179.69
2023-01-13T09:27:28.029Z,180.05
2023-01-13T09:28:27.986Z,181.36
2023-01-13T09:29:28.039Z,179.22
2023-01-13T09:30:27.934Z,180.40
2023-01-13T09:31:28.036Z,178.62
2023-01-13T09:32:27.871Z,179.12
2023-01-13T09:33:27.882Z,178.94
2023-01-13T09:34:27.805Z,184.37
2023-01-13T09:35:27.848Z,182.58
2023-01-13T09:36:27.736Z,179.60
2023-01-13T09:37:27.758Z,182.43
2023-01-13T09:38:27.681Z,182.76
2023-01-13T09:39:27.702Z,181.81
2023-01-13T09:40:27.633Z,181.93
2023-01-13T09:41:27.726Z,181.25
2023-01-13T09:42:27.602Z,179.66
2023-01-13T09:43:27.645Z,181.19
2023-01-13T09:44:27.523Z,181.44
2023-01-13T09:45:27.535Z,180.92
2023-01-13T09:46:29.584Z,180.85
2023-01-13T09:47:27.494Z,183.38
2023-01-13T09:48:27.414Z,180.14
2023-01-13T09:49:27.436Z,180.80
2023-01-13T09:50:28.416Z,180.08
2023-01-13T09:51:27.972Z,180.01
2023-01-13T09:52:27.856Z,178.82
2023-01-13T09:53:27.438Z,178.28
2023-01-13T09:54:27.315Z,177.66
2023-01-13T09:55:27.294Z,177.29
2023-01-13T09:56:27.249Z,180.40
2023-01-13T09:57:27.263Z,180.13
2023-01-13T09:58:27.215Z,176.39
2023-01-13T09:59:27.194Z,175.88
2023-01-13T10:00:27.162Z,176.72
2023-01-13T10:01:27.242Z,175.84
2023-01-13T10:02:27.119Z,176.32
2023-01-13T10:03:27.173Z,174.25
2023-01-13T10:04:27.085Z,173.99
2023-01-13T10:05:27.890Z,175.95
2023-01-13T10:06:27.039Z,172.75
2023-01-13T10:07:27.062Z,173.44
2023-01-13T10:08:27.215Z,171.72
2023-01-13T10:09:27.005Z,172.00
2023-01-13T10:10:26.958Z,168.67
2023-01-13T10:11:27.032Z,167.93
2023-01-13T10:12:26.917Z,172.26
2023-01-13T10:13:26.918Z,173.87
2023-01-13T10:14:26.878Z,172.94
2023-01-13T10:15:26.926Z,170.60
2023-01-13T10:16:27.918Z,170.19
2023-01-13T10:17:28.102Z,170.11
2023-01-13T10:18:28.020Z,169.07
2023-01-13T10:19:29.357Z,170.11
2023-01-13T10:20:27.073Z,169.95
2023-01-13T10:21:26.930Z,161.18
2023-01-13T10:22:26.868Z,157.08
2023-01-13T10:23:26.868Z,162.80
2023-01-13T10:24:26.939Z,165.74
2023-01-13T10:25:26.841Z,160.06
2023-01-13T10:26:26.800Z,158.96
2023-01-13T10:27:26.808Z,158.41
2023-01-13T10:28:26.757Z,158.89
2023-01-13T10:29:26.776Z,159.20
2023-01-13T10:30:26.685Z,155.49
2023-01-13T10:31:26.767Z,156.61
2023-01-13T10:32:27.645Z,153.54
2023-01-13T10:33:28.096Z,156.05
2023-01-13T10:34:27.700Z,153.41
2023-01-13T10:35:26.635Z,158.14
2023-01-13T10:36:26.585Z,162.16
2023-01-13T10:37:26.569Z,161.92
2023-01-13T10:38:26.536Z,163.85
2023-01-13T10:39:26.561Z,167.05
2023-01-13T10:40:26.511Z,167.57
2023-01-13T10:41:26.536Z,162.06
2023-01-13T10:42:26.452Z,158.20
2023-01-13T10:43:26.470Z,160.74
2023-01-13T10:44:26.442Z,166.00
2023-01-13T10:45:26.435Z,165.07
2023-01-13T10:46:26.479Z,167.06
2023-01-13T10:47:26.414Z,168.07
2023-01-13T10:48:26.344Z,166.68
2023-01-13T10:49:26.373Z,170.37
2023-01-13T10:50:26.507Z,170.98
2023-01-13T10:51:26.325Z,169.44
2023-01-13T10:52:26.343Z,175.80
2023-01-13T10:53:26.281Z,182.13
2023-01-13T10:54:26.252Z,173.80
2023-01-13T10:55:26.277Z,154.30
2023-01-13T10:56:26.192Z,129.86
2023-01-13T10:57:26.271Z,87.99
2023-01-13T10:58:26.181Z,63.15
2023-01-13T10:59:26.186Z,79.81
2023-01-13T11:00:26.522Z,83.40
2023-01-13T11:01:26.411Z,88.66
2023-01-13T11:02:26.979Z,82.40
2023-01-13T11:03:26.176Z,83.81
2023-01-13T11:04:26.184Z,75.44
2023-01-13T11:05:26.150Z,74.10
2023-01-13T11:06:26.170Z,80.83
2023-01-13T11:07:28.359Z,89.23
2023-01-13T11:08:26.079Z,81.46
2023-01-13T11:09:26.093Z,83.65
2023-01-13T11:10:26.064Z,83.72
2023-01-13T11:11:26.061Z,94.70
2023-01-13T11:12:25.993Z,88.02
2023-01-13T11:13:26.046Z,93.29
2023-01-13T11:14:25.958Z,94.72
2023-01-13T11:15:27.477Z,84.83
2023-01-13T11:16:26.983Z,78.11
2023-01-13T11:17:28.265Z,75.30
2023-01-13T11:18:26.867Z,72.86
2023-01-13T11:19:26.025Z,84.19
2023-01-13T11:20:25.851Z,83.29
2023-01-13T11:21:27.296Z,83.70
2023-01-13T11:22:27.613Z,84.62
2023-01-13T11:23:27.316Z,88.80
2023-01-13T11:24:26.458Z,86.98
2023-01-13T11:25:25.811Z,88.61
2023-01-13T11:26:25.764Z,87.57
2023-01-13T11:27:25.881Z,88.76
2023-01-13T11:28:25.869Z,89.70
2023-01-13T11:29:26.973Z,91.16
2023-01-13T11:30:25.700Z,92.67
2023-01-13T11:31:25.904Z,92.02
2023-01-13T11:32:25.662Z,96.29
2023-01-13T11:33:25.672Z,93.31
2023-01-13T11:34:25.596Z,95.34
2023-01-13T11:35:25.642Z,95.01
2023-01-13T11:36:25.603Z,92.76
2023-01-13T11:37:27.020Z,98.88
2023-01-13T11:38:26.246Z,95.83
2023-01-13T11:39:27.088Z,99.10
2023-01-13T11:40:25.652Z,98.98
2023-01-13T11:41:25.513Z,100.17
2023-01-13T11:42:25.528Z,101.16
2023-01-13T11:43:25.488Z,102.96
2023-01-13T11:44:25.402Z,101.54
2023-01-13T11:45:25.497Z,104.99
2023-01-13T11:46:25.381Z,103.34
2023-01-13T11:47:25.369Z,103.77
2023-01-13T11:48:25.313Z,103.93
2023-01-13T11:49:25.343Z,108.44
2023-01-13T11:50:25.254Z,105.72
2023-01-13T11:51:25.260Z,107.88
2023-01-13T11:52:25.231Z,107.03
2023-01-13T11:53:25.249Z,109.33
2023-01-13T11:54:25.213Z,109.34
2023-01-13T11:55:25.195Z,109.31
2023-01-13T11:56:25.102Z,109.90
2023-01-13T11:57:25.155Z,108.90
2023-01-13T11:58:25.091Z,111.20
2023-01-13T11:59:25.090Z,110.62
2023-01-13T12:00:25.010Z,110.92
2023-01-13T12:01:25.070Z,112.96
2023-01-13T12:02:25.049Z,113.03
2023-01-13T12:03:25.024Z,113.42
2023-01-13T12:04:24.910Z,115.28
2023-01-13T12:05:24.937Z,113.07
2023-01-13T12:06:24.871Z,113.99
2023-01-13T12:07:24.876Z,114.24
2023-01-13T12:08:24.775Z,117.56
2023-01-13T12:09:24.799Z,115.37
2023-01-13T12:10:24.726Z,119.33
2023-01-13T12:11:24.753Z,118.34
2023-01-13T12:12:24.671Z,119.97
2023-01-13T12:13:24.715Z,119.09
2023-01-13T12:14:24.678Z,120.31
2023-01-13T12:15:24.659Z,117.85
2023-01-13T12:16:24.629Z,116.31
2023-01-13T12:17:24.586Z,118.25
2023-01-13T12:18:24.542Z,118.26
2023-01-13T12:19:24.607Z,118.41
2023-01-13T12:20:24.449Z,119.12
2023-01-13T12:21:24.473Z,118.49
2023-01-13T12:22:24.430Z,119.28
2023-01-13T12:23:24.446Z,121.26
2023-01-13T12:24:24.385Z,115.69
2023-01-13T12:25:24.383Z,119.04
2023-01-13T12:26:24.355Z,116.99
2023-01-13T12:27:24.343Z,119.72
2023-01-13T12:28:24.288Z,122.47
2023-01-13T12:29:24.276Z,119.64